Las Tunas, Cuba
Current Conditions -  °F | °C
As of 4:50 PM on Thursday 27 Nov 2014 (Local Time) from MUHG Reporting Station
Scattered Clouds Scattered Clouds  
Wind Chill: 84°   Ceiling: Unl
Heat Index: 86°   Visibility: 6mi
Dew Point: 66°   Wind: 15mph
Humidity: 55%   Direction: 30°NNE
Pressure: 29.94"   Gusts: NA
Location:  20.97°N, 76.95°W
Report Text: MUHG 272050Z 03013KT 360V060 9999 SCT025 29/19 Q1014
Loading
Personal Weather Stations






























Interactive Weather Map New forecast layout! Learn more

10-Day Weather Forecast

Advertisements
Track Severe Weather on mobile